Time;durP1;ratioP1;P1;durP2;ratioP2;P2;SDS_P1;SDS_P2;PMS_P1;PMS_P2;Temp;Humidity;BMP_temperature;BMP_pressure;BME280_temperature;BME280_humidity;BME280_pressure;Samples;Min_cycle;Max_cycle;Signal;HPM_P1;HPM_P2
2022/08/06 00:00:19;0.00;0.00;0.62;0.00;0.00;0.62;1.90;1.07;;;26.80;27.50;;;;;;2214403;62;20398;-66
2022/08/06 00:03:04;0.00;0.00;0.62;0.00;0.00;0.62;1.80;1.03;;;26.80;27.60;;;;;;2214125;62;20430;-65
2022/08/06 00:05:49;0.00;0.00;0.62;0.00;0.00;0.62;1.73;0.90;;;26.80;27.70;;;;;;2214490;62;20372;-67
2022/08/06 00:08:34;0.00;0.00;0.62;0.00;0.00;0.62;2.53;1.40;;;26.80;27.70;;;;;;2214642;62;20388;-65
2022/08/06 00:11:18;0.00;0.00;0.62;0.00;0.00;0.62;2.00;1.30;;;26.80;27.70;;;;;;2214134;62;20384;-66
2022/08/06 00:14:05;0.00;0.00;0.62;0.00;0.00;0.62;2.03;1.00;;;26.70;27.60;;;;;;2214503;62;20621;-65
2022/08/06 00:16:50;0.00;0.00;0.62;0.00;0.00;0.62;1.50;0.90;;;26.80;27.60;;;;;;2214699;62;20381;-66
2022/08/06 00:19:34;0.00;0.00;0.62;0.00;0.00;0.62;1.50;1.00;;;26.80;27.70;;;;;;2213996;62;20768;-67
2022/08/06 00:22:19;0.00;0.00;0.62;0.00;0.00;0.62;1.47;0.90;;;26.80;27.70;;;;;;2214690;62;20381;-66
2022/08/06 00:25:07;0.00;0.00;0.62;0.00;0.00;0.62;2.80;1.27;;;26.70;27.70;;;;;;2214375;62;20486;-66
2022/08/06 00:27:52;0.00;0.00;0.62;0.00;0.00;0.62;1.67;1.27;;;26.70;27.60;;;;;;2214288;62;20645;-65
2022/08/06 00:30:38;0.00;0.00;0.62;0.00;0.00;0.62;1.50;1.00;;;26.70;27.70;;;;;;2214787;62;20728;-66
2022/08/06 00:33:23;0.00;0.00;0.62;0.00;0.00;0.62;3.03;1.20;;;26.70;27.60;;;;;;2214009;62;20415;-66
2022/08/06 00:36:09;0.00;0.00;0.62;0.00;0.00;0.62;2.00;1.17;;;26.70;27.60;;;;;;2214379;62;20414;-66
2022/08/06 00:38:55;0.00;0.00;0.62;0.00;0.00;0.62;2.00;1.20;;;26.70;27.60;;;;;;2214719;62;20394;-65
2022/08/06 00:41:39;0.00;0.00;0.62;0.00;0.00;0.62;1.70;0.97;;;26.60;27.40;;;;;;2214022;62;20380;-67
2022/08/06 00:44:25;0.00;0.00;0.62;0.00;0.00;0.62;2.00;1.20;;;26.60;27.40;;;;;;2214749;62;20373;-66
2022/08/06 00:47:11;0.00;0.00;0.62;0.00;0.00;0.62;1.80;1.20;;;26.50;27.40;;;;;;2214015;62;20393;-66
2022/08/06 00:49:55;0.00;0.00;0.62;0.00;0.00;0.62;3.40;1.60;;;26.50;27.60;;;;;;2214446;62;20373;-66
2022/08/06 00:52:40;0.00;0.00;0.62;0.00;0.00;0.62;1.50;0.90;;;26.50;27.70;;;;;;2214630;62;20411;-66
2022/08/06 00:55:25;0.00;0.00;0.62;0.00;0.00;0.62;1.60;0.90;;;26.50;27.70;;;;;;2213986;62;20362;-66
2022/08/06 00:58:10;0.00;0.00;0.62;0.00;0.00;0.62;1.73;0.93;;;26.50;27.70;;;;;;2213965;62;20387;-65
2022/08/06 01:00:55;0.00;0.00;0.62;0.00;0.00;0.62;1.70;1.10;;;26.50;27.80;;;;;;2214635;62;20397;-65
2022/08/06 01:03:42;0.00;0.00;0.62;0.00;0.00;0.62;1.60;1.07;;;26.40;27.70;;;;;;2213882;62;20605;-65
2022/08/06 01:06:26;0.00;0.00;0.62;0.00;0.00;0.62;2.57;1.47;;;26.40;27.70;;;;;;2214468;62;20476;-65
2022/08/06 01:09:11;0.00;0.00;0.62;0.00;0.00;0.62;2.13;0.80;;;26.40;27.70;;;;;;2214177;62;20401;-64
2022/08/06 01:11:56;0.00;0.00;0.62;0.00;0.00;0.62;2.17;1.40;;;26.40;27.70;;;;;;2214011;62;20706;-66
2022/08/06 01:14:40;0.00;0.00;0.62;0.00;0.00;0.62;2.50;1.30;;;26.30;27.70;;;;;;2214607;62;20372;-65
2022/08/06 01:17:53;0.00;0.00;0.62;0.00;0.00;0.62;2.10;1.20;;;26.40;27.80;;;;;;2213689;62;20416;-66
2022/08/06 01:21:09;0.00;0.00;0.62;0.00;0.00;0.62;5.40;1.70;;;26.30;27.70;;;;;;2214419;62;20426;-66
2022/08/06 01:24:40;0.00;0.00;0.62;0.00;0.00;0.62;2.13;1.03;;;26.30;27.70;;;;;;2214481;62;20376;-66
2022/08/06 01:27:43;0.00;0.00;0.62;0.00;0.00;0.62;1.50;0.87;;;26.30;28.30;;;;;;2212506;62;20480;-65
2022/08/06 01:30:35;0.00;0.00;0.62;0.00;0.00;0.62;3.53;1.40;;;26.30;27.90;;;;;;2214402;62;20388;-67
2022/08/06 01:33:26;0.00;0.00;0.62;0.00;0.00;0.62;1.60;1.30;;;26.20;27.90;;;;;;2213915;62;20641;-66
2022/08/06 01:36:20;0.00;0.00;0.62;0.00;0.00;0.62;1.67;1.03;;;26.20;28.00;;;;;;2215106;62;20373;-66
2022/08/06 01:39:05;0.00;0.00;0.62;0.00;0.00;0.62;1.80;1.07;;;26.20;27.90;;;;;;2214439;62;20611;-66
2022/08/06 01:41:54;0.00;0.00;0.62;0.00;0.00;0.62;1.40;0.87;;;26.20;27.80;;;;;;2217347;62;20372;-66
2022/08/06 01:44:43;0.00;0.00;0.62;0.00;0.00;0.62;2.57;1.33;;;26.20;27.70;;;;;;2215181;62;20409;-66
2022/08/06 01:47:32;0.00;0.00;0.62;0.00;0.00;0.62;2.13;1.30;;;26.20;27.80;;;;;;2214072;62;20397;-66
2022/08/06 01:50:21;0.00;0.00;0.62;0.00;0.00;0.62;2.20;1.10;;;26.20;27.70;;;;;;2214800;62;20372;-65
2022/08/06 01:53:11;0.00;0.00;0.62;0.00;0.00;0.62;2.33;1.00;;;26.10;27.50;;;;;;2215249;62;20369;-66
2022/08/06 01:56:00;0.00;0.00;0.62;0.00;0.00;0.62;5.83;1.37;;;26.10;27.60;;;;;;2214372;62;20365;-66
2022/08/06 01:58:49;0.00;0.00;0.62;0.00;0.00;0.62;1.70;1.00;;;26.00;27.60;;;;;;2215182;62;20385;-66
2022/08/06 02:01:37;0.00;0.00;0.62;0.00;0.00;0.62;2.00;1.00;;;26.00;27.60;;;;;;2214507;62;20496;-66
2022/08/06 02:04:29;0.00;0.00;0.62;0.00;0.00;0.62;2.40;1.20;;;25.90;27.50;;;;;;2214821;62;20494;-66
2022/08/06 02:07:17;0.00;0.00;0.62;0.00;0.00;0.62;1.50;0.93;;;25.80;27.60;;;;;;2214971;62;20430;-66
2022/08/06 02:10:06;0.00;0.00;0.62;0.00;0.00;0.62;2.10;1.10;;;25.70;27.70;;;;;;2214469;62;20376;-67
2022/08/06 02:12:52;0.00;0.00;0.62;0.00;0.00;0.62;1.70;1.00;;;25.70;27.80;;;;;;2214895;62;20380;-66
2022/08/06 02:15:38;0.00;0.00;0.62;0.00;0.00;0.62;2.23;1.27;;;25.70;27.90;;;;;;2215211;62;20736;-66
2022/08/06 02:18:26;0.00;0.00;0.62;0.00;0.00;0.62;1.90;1.13;;;25.60;28.00;;;;;;2214232;62;20383;-65
2022/08/06 02:21:20;0.00;0.00;0.62;0.00;0.00;0.62;1.80;0.90;;;25.60;28.10;;;;;;2215300;62;20400;-66
2022/08/06 02:24:08;0.00;0.00;0.62;0.00;0.00;0.62;1.73;0.90;;;25.60;28.20;;;;;;2214304;62;20404;-65
2022/08/06 02:26:55;0.00;0.00;0.62;0.00;0.00;0.62;2.90;1.07;;;25.60;28.20;;;;;;2214626;62;20506;-66
2022/08/06 02:29:41;0.00;0.00;0.62;0.00;0.00;0.62;1.53;1.03;;;25.70;28.30;;;;;;2215072;62;20357;-65
2022/08/06 02:32:27;0.00;0.00;0.62;0.00;0.00;0.62;3.33;1.20;;;25.70;28.30;;;;;;2214086;62;20372;-65
2022/08/06 02:35:13;0.00;0.00;0.62;0.00;0.00;0.62;3.30;1.23;;;25.70;28.30;;;;;;2215139;62;20383;-66
2022/08/06 02:38:03;0.00;0.00;0.62;0.00;0.00;0.62;1.60;1.00;;;25.70;28.30;;;;;;2214967;62;20393;-66
2022/08/06 02:40:56;0.00;0.00;0.62;0.00;0.00;0.62;3.03;1.17;;;25.70;28.30;;;;;;2214693;62;20424;-66
2022/08/06 02:43:47;0.00;0.00;0.62;0.00;0.00;0.62;1.40;0.87;;;25.70;28.30;;;;;;2215205;62;20440;-66
2022/08/06 02:46:39;0.00;0.00;0.62;0.00;0.00;0.62;2.20;1.20;;;25.70;28.30;;;;;;2214243;62;20489;-66
2022/08/06 02:49:28;0.00;0.00;0.62;0.00;0.00;0.62;2.27;1.13;;;25.70;28.30;;;;;;2214930;62;20361;-67
2022/08/06 02:52:19;0.00;0.00;0.62;0.00;0.00;0.62;2.03;0.90;;;25.70;28.30;;;;;;2215182;62;20465;-66
2022/08/06 02:55:11;0.00;0.00;0.62;0.00;0.00;0.62;3.03;1.30;;;25.70;28.20;;;;;;2214406;62;20431;-66
2022/08/06 02:58:04;0.00;0.00;0.62;0.00;0.00;0.62;2.90;1.23;;;25.60;28.00;;;;;;2215170;62;20477;-67
2022/08/06 03:00:51;0.00;0.00;0.62;0.00;0.00;0.62;1.40;0.90;;;25.50;27.90;;;;;;2214336;62;20472;-66
2022/08/06 03:03:38;0.00;0.00;0.62;0.00;0.00;0.62;4.60;1.43;;;25.40;27.90;;;;;;2214658;62;20397;-66
2022/08/06 03:06:26;0.00;0.00;0.62;0.00;0.00;0.62;2.90;1.10;;;25.40;27.90;;;;;;2214760;62;20376;-66
2022/08/06 03:09:16;0.00;0.00;0.62;0.00;0.00;0.62;3.33;1.30;;;25.20;27.90;;;;;;2213864;62;20396;-66
2022/08/06 03:12:01;0.00;0.00;0.62;0.00;0.00;0.62;5.60;1.60;;;25.10;28.10;;;;;;2214731;62;20736;-66
2022/08/06 03:14:48;0.00;0.00;0.62;0.00;0.00;0.62;2.93;1.40;;;25.00;28.20;;;;;;2215405;62;20368;-66
2022/08/06 03:17:36;0.00;0.00;0.62;0.00;0.00;0.62;2.63;1.37;;;24.90;28.20;;;;;;2214097;62;21111;-66
2022/08/06 03:20:22;0.00;0.00;0.62;0.00;0.00;0.62;1.87;1.33;;;24.90;28.30;;;;;;2214836;62;20400;-66
2022/08/06 03:23:09;0.00;0.00;0.62;0.00;0.00;0.62;1.77;1.10;;;24.80;28.40;;;;;;2213774;62;20377;-66
2022/08/06 03:25:56;0.00;0.00;0.62;0.00;0.00;0.62;2.80;1.60;;;24.70;28.40;;;;;;2214708;62;20368;-66
2022/08/06 03:28:42;0.00;0.00;0.62;0.00;0.00;0.62;3.50;1.60;;;24.60;28.50;;;;;;2217020;62;20741;-65
2022/08/06 03:31:27;0.00;0.00;0.62;0.00;0.00;0.62;2.70;1.47;;;24.60;28.50;;;;;;2214217;62;20725;-66
2022/08/06 03:34:12;0.00;0.00;0.62;0.00;0.00;0.62;2.50;1.30;;;24.50;28.60;;;;;;2214518;62;20373;-66
2022/08/06 03:36:57;0.00;0.00;0.62;0.00;0.00;0.62;3.27;1.57;;;24.50;28.60;;;;;;2214733;62;20716;-65
2022/08/06 03:39:45;0.00;0.00;0.62;0.00;0.00;0.62;1.70;1.10;;;24.40;28.70;;;;;;2213993;62;20415;-66
2022/08/06 03:42:31;0.00;0.00;0.62;0.00;0.00;0.62;2.47;1.10;;;24.40;28.80;;;;;;2214730;62;20418;-65
2022/08/06 03:45:16;0.00;0.00;0.62;0.00;0.00;0.62;2.50;1.20;;;24.30;28.90;;;;;;2214156;62;20377;-66
2022/08/06 03:48:03;0.00;0.00;0.62;0.00;0.00;0.62;1.90;1.30;;;24.20;28.90;;;;;;2214360;62;20393;-66
2022/08/06 03:50:49;0.00;0.00;0.62;0.00;0.00;0.62;2.07;1.17;;;24.20;29.00;;;;;;2214900;62;20403;-66
2022/08/06 03:53:37;0.00;0.00;0.62;0.00;0.00;0.62;2.50;1.40;;;24.20;29.10;;;;;;2213662;62;20430;-65
2022/08/06 03:56:26;0.00;0.00;0.62;0.00;0.00;0.62;2.30;1.60;;;24.20;29.20;;;;;;2214433;62;20364;-66
2022/08/06 03:59:14;0.00;0.00;0.62;0.00;0.00;0.62;2.90;2.30;;;24.10;29.10;;;;;;2214810;62;20633;-65
2022/08/06 04:02:00;0.00;0.00;0.62;0.00;0.00;0.62;3.43;1.83;;;24.10;29.20;;;;;;2213844;62;20742;-66
2022/08/06 04:04:47;0.00;0.00;0.62;0.00;0.00;0.62;2.97;2.00;;;24.10;29.40;;;;;;2214797;62;20446;-65
2022/08/06 04:07:33;0.00;0.00;0.62;0.00;0.00;0.62;2.50;1.93;;;24.00;29.40;;;;;;2213933;62;20764;-66
2022/08/06 04:10:18;0.00;0.00;0.62;0.00;0.00;0.62;2.50;1.90;;;24.00;29.40;;;;;;2214262;62;20364;-67
2022/08/06 04:13:07;0.00;0.00;0.62;0.00;0.00;0.62;4.97;1.67;;;24.00;29.40;;;;;;2214770;62;20420;-65
2022/08/06 04:15:55;0.00;0.00;0.62;0.00;0.00;0.62;2.50;1.83;;;24.00;29.40;;;;;;2214160;62;20725;-66
2022/08/06 04:18:41;0.00;0.00;0.62;0.00;0.00;0.62;3.30;1.90;;;23.90;29.30;;;;;;2214460;62;20793;-67
2022/08/06 04:21:26;0.00;0.00;0.62;0.00;0.00;0.62;4.03;2.30;;;23.90;29.30;;;;;;2214393;62;20428;-66
2022/08/06 04:24:12;0.00;0.00;0.62;0.00;0.00;0.62;5.40;2.40;;;23.90;29.30;;;;;;2213964;62;20418;-66
2022/08/06 04:26:58;0.00;0.00;0.62;0.00;0.00;0.62;2.87;1.70;;;23.90;29.30;;;;;;2214569;62;20409;-65
2022/08/06 04:29:45;0.00;0.00;0.62;0.00;0.00;0.62;4.60;2.20;;;23.90;29.50;;;;;;2214111;62;20571;-66
2022/08/06 04:32:32;0.00;0.00;0.62;0.00;0.00;0.62;1.93;1.40;;;23.90;29.60;;;;;;2214445;62;20372;-66
2022/08/06 04:35:17;0.00;0.00;0.62;0.00;0.00;0.62;2.40;1.70;;;23.90;29.60;;;;;;2214869;62;20453;-66
2022/08/06 04:38:03;0.00;0.00;0.62;0.00;0.00;0.62;3.50;1.80;;;23.90;29.60;;;;;;2213869;62;20409;-66
2022/08/06 04:40:48;0.00;0.00;0.62;0.00;0.00;0.62;2.27;1.40;;;23.90;29.40;;;;;;2214498;62;20442;-68
2022/08/06 04:43:34;0.00;0.00;0.62;0.00;0.00;0.62;3.17;1.50;;;23.90;29.30;;;;;;2214690;62;20369;-66
2022/08/06 04:46:20;0.00;0.00;0.62;0.00;0.00;0.62;3.03;1.40;;;23.80;29.30;;;;;;2213263;62;20422;-66
2022/08/06 04:49:06;0.00;0.00;0.62;0.00;0.00;0.62;3.60;1.30;;;23.80;29.40;;;;;;2214390;62;20430;-66
2022/08/06 04:51:51;0.00;0.00;0.62;0.00;0.00;0.62;5.03;1.50;;;23.80;29.40;;;;;;2213677;62;20373;-67
2022/08/06 04:54:36;0.00;0.00;0.62;0.00;0.00;0.62;2.57;1.30;;;23.70;29.50;;;;;;2214306;62;20414;-66
2022/08/06 04:57:20;0.00;0.00;0.62;0.00;0.00;0.62;3.83;1.63;;;23.70;29.60;;;;;;2214579;62;20464;-65
2022/08/06 05:00:07;0.00;0.00;0.62;0.00;0.00;0.62;3.20;1.20;;;23.70;29.60;;;;;;2213761;62;20426;-68
2022/08/06 05:02:52;0.00;0.00;0.62;0.00;0.00;0.62;4.10;1.50;;;23.70;29.70;;;;;;2214320;62;20385;-65
2022/08/06 05:05:47;0.00;0.00;0.62;0.00;0.00;0.62;1.70;1.10;;;23.70;29.80;;;;;;2214571;62;20376;-66
2022/08/06 05:08:38;0.00;0.00;0.62;0.00;0.00;0.62;2.20;1.40;;;23.70;29.80;;;;;;2213335;62;20471;-66
2022/08/06 05:11:27;0.00;0.00;0.62;0.00;0.00;0.62;2.00;1.13;;;23.70;29.80;;;;;;2214609;62;20361;-66
2022/08/06 05:14:18;0.00;0.00;0.62;0.00;0.00;0.62;1.60;1.00;;;23.60;29.70;;;;;;2213730;62;20663;-66
2022/08/06 05:17:05;0.00;0.00;0.62;0.00;0.00;0.62;1.80;1.37;;;23.60;29.80;;;;;;2214193;62;20389;-66
2022/08/06 05:19:56;0.00;0.00;0.62;0.00;0.00;0.62;2.03;1.20;;;23.60;29.80;;;;;;2214470;62;20388;-65
2022/08/06 05:22:46;0.00;0.00;0.62;0.00;0.00;0.62;2.23;1.63;;;23.60;29.90;;;;;;2213735;62;20372;-65
2022/08/06 05:25:32;0.00;0.00;0.62;0.00;0.00;0.62;2.80;1.30;;;23.60;29.90;;;;;;2214819;62;20388;-67
2022/08/06 05:28:16;0.00;0.00;0.62;0.00;0.00;0.62;3.00;1.50;;;23.60;29.90;;;;;;2214344;62;20417;-66
2022/08/06 05:31:01;0.00;0.00;0.62;0.00;0.00;0.62;1.80;1.10;;;23.60;30.00;;;;;;2214093;62;20788;-66
2022/08/06 05:33:46;0.00;0.00;0.62;0.00;0.00;0.62;1.50;1.20;;;23.50;29.90;;;;;;2214429;62;20376;-68
2022/08/06 05:36:31;0.00;0.00;0.62;0.00;0.00;0.62;1.73;1.00;;;23.50;29.90;;;;;;2213693;62;20600;-67
2022/08/06 05:39:19;0.00;0.00;0.62;0.00;0.00;0.62;8.30;1.57;;;23.50;29.90;;;;;;2213888;62;20372;-66
2022/08/06 05:42:04;0.00;0.00;0.62;0.00;0.00;0.62;3.60;1.40;;;23.50;29.90;;;;;;2213988;62;20384;-66
2022/08/06 05:44:49;0.00;0.00;0.62;0.00;0.00;0.62;4.37;1.73;;;23.50;30.00;;;;;;2213917;62;20372;-65
2022/08/06 05:47:37;0.00;0.00;0.62;0.00;0.00;0.62;2.30;1.30;;;23.40;30.00;;;;;;2214095;62;20764;-65
2022/08/06 05:50:30;0.00;0.00;0.62;0.00;0.00;0.62;1.80;1.40;;;23.40;30.00;;;;;;2214575;62;20368;-65
2022/08/06 05:53:21;0.00;0.00;0.62;0.00;0.00;0.62;2.23;1.63;;;23.40;30.10;;;;;;2214355;62;20736;-67
2022/08/06 05:56:13;0.00;0.00;0.62;0.00;0.00;0.62;4.57;1.67;;;23.40;30.20;;;;;;2214364;62;20453;-66
2022/08/06 05:59:04;0.00;0.00;0.62;0.00;0.00;0.62;2.40;1.27;;;23.30;30.20;;;;;;2213920;62;20400;-66
2022/08/06 06:01:50;0.00;0.00;0.62;0.00;0.00;0.62;3.00;1.40;;;23.30;30.30;;;;;;2214006;62;20388;-68
2022/08/06 06:04:36;0.00;0.00;0.62;0.00;0.00;0.62;3.60;1.40;;;23.30;30.40;;;;;;2214454;62;20372;-68
2022/08/06 06:07:21;0.00;0.00;0.62;0.00;0.00;0.62;3.03;1.73;;;23.30;30.40;;;;;;2213573;62;20435;-67
2022/08/06 06:10:08;0.00;0.00;0.62;0.00;0.00;0.62;2.70;2.00;;;23.30;30.60;;;;;;2214392;62;20445;-68
2022/08/06 06:12:56;0.00;0.00;0.62;0.00;0.00;0.62;2.47;1.70;;;23.30;30.70;;;;;;2214091;62;20721;-67
2022/08/06 06:15:48;0.00;0.00;0.62;0.00;0.00;0.62;3.87;1.40;;;23.30;30.80;;;;;;2213937;62;20420;-67
2022/08/06 06:18:53;0.00;0.00;0.62;0.00;0.00;0.62;3.60;1.60;;;23.30;30.90;;;;;;2214339;62;20384;-66
2022/08/06 06:21:51;0.00;0.00;0.62;0.00;0.00;0.62;2.17;1.30;;;23.30;31.00;;;;;;2214074;62;20424;-65
2022/08/06 06:24:41;0.00;0.00;0.62;0.00;0.00;0.62;2.17;1.30;;;23.40;31.10;;;;;;2214713;62;20388;-69
2022/08/06 06:27:45;0.00;0.00;0.62;0.00;0.00;0.62;3.43;1.30;;;23.40;31.10;;;;;;2215002;62;20474;-67
2022/08/06 06:30:43;0.00;0.00;0.62;0.00;0.00;0.62;1.80;1.00;;;23.40;31.10;;;;;;2214627;62;20449;-66
2022/08/06 06:33:37;0.00;0.00;0.62;0.00;0.00;0.62;3.40;1.43;;;23.40;31.10;;;;;;2215281;62;20495;-68
2022/08/06 06:36:29;0.00;0.00;0.62;0.00;0.00;0.62;2.97;1.30;;;23.40;31.80;;;;;;2214292;62;20744;-67
2022/08/06 06:39:27;0.00;0.00;0.62;0.00;0.00;0.62;2.17;1.00;;;23.40;31.20;;;;;;2214261;62;20406;-66
2022/08/06 06:42:17;0.00;0.00;0.62;0.00;0.00;0.62;1.90;1.37;;;23.50;31.30;;;;;;2215015;62;20361;-66
2022/08/06 06:45:12;0.00;0.00;0.62;0.00;0.00;0.62;1.80;1.27;;;23.50;31.30;;;;;;2214176;62;20608;-68
2022/08/06 06:48:04;0.00;0.00;0.62;0.00;0.00;0.62;5.40;1.37;;;23.50;31.30;;;;;;2214790;62;20389;-70
2022/08/06 06:50:53;0.00;0.00;0.62;0.00;0.00;0.62;5.23;1.70;;;23.50;31.30;;;;;;2213741;62;20377;-70
2022/08/06 06:53:44;0.00;0.00;0.62;0.00;0.00;0.62;3.90;1.50;;;23.60;31.30;;;;;;2214598;62;20586;-68
2022/08/06 06:56:42;0.00;0.00;0.62;0.00;0.00;0.62;2.20;1.00;;;23.60;31.30;;;;;;2214981;62;20384;-68
2022/08/06 06:59:34;0.00;0.00;0.62;0.00;0.00;0.62;3.60;1.50;;;23.60;31.30;;;;;;2213841;62;20415;-68
2022/08/06 07:02:24;0.00;0.00;0.62;0.00;0.00;0.62;1.70;1.10;;;23.70;31.30;;;;;;2214970;62;20473;-69
2022/08/06 07:05:13;0.00;0.00;0.62;0.00;0.00;0.62;1.60;1.07;;;23.70;31.30;;;;;;2214096;62;20368;-70
2022/08/06 07:07:59;0.00;0.00;0.62;0.00;0.00;0.62;1.93;0.90;;;23.80;31.40;;;;;;2214011;62;20424;-69
2022/08/06 07:10:45;0.00;0.00;0.62;0.00;0.00;0.62;2.10;1.13;;;23.80;31.40;;;;;;2215026;62;20451;-65
2022/08/06 07:13:30;0.00;0.00;0.62;0.00;0.00;0.62;2.38;1.15;;;23.80;31.30;;;;;;2213645;62;20382;-68
2022/08/06 07:16:18;0.00;0.00;0.62;0.00;0.00;0.62;6.80;1.50;;;23.80;31.60;;;;;;2214135;62;20237;-68
2022/08/06 07:19:05;0.00;0.00;0.62;0.00;0.00;0.62;3.30;1.30;;;23.90;31.40;;;;;;2215030;62;20715;-67
2022/08/06 07:21:52;0.00;0.00;0.62;0.00;0.00;0.62;1.60;1.00;;;24.00;31.40;;;;;;2213706;62;20479;-68
2022/08/06 07:24:38;0.00;0.00;0.62;0.00;0.00;0.62;2.10;1.30;;;24.00;31.40;;;;;;2215010;62;20748;-67
2022/08/06 07:27:24;0.00;0.00;0.62;0.00;0.00;0.62;2.37;1.33;;;24.10;31.40;;;;;;2213506;62;20414;-68
2022/08/06 07:30:12;0.00;0.00;0.62;0.00;0.00;0.62;1.77;0.93;;;24.10;31.30;;;;;;2214442;62;20401;-67
2022/08/06 07:32:58;0.00;0.00;0.62;0.00;0.00;0.62;1.97;1.10;;;24.20;31.30;;;;;;2214705;62;20393;-71
2022/08/06 07:35:44;0.00;0.00;0.62;0.00;0.00;0.62;2.27;0.90;;;24.20;31.30;;;;;;2214132;62;20364;-68
2022/08/06 07:38:32;0.00;0.00;0.62;0.00;0.00;0.62;1.60;1.10;;;24.30;31.30;;;;;;2214602;62;20392;-69
2022/08/06 07:41:20;0.00;0.00;0.62;0.00;0.00;0.62;1.50;0.90;;;24.30;31.30;;;;;;2214769;62;20404;-69
2022/08/06 07:44:09;0.00;0.00;0.62;0.00;0.00;0.62;1.77;0.90;;;24.30;31.20;;;;;;2214181;62;20368;-68
2022/08/06 07:46:59;0.00;0.00;0.62;0.00;0.00;0.62;2.07;1.20;;;24.40;31.30;;;;;;2214312;62;20437;-69
2022/08/06 07:49:47;0.00;0.00;0.62;0.00;0.00;0.62;2.00;0.80;;;24.40;31.20;;;;;;2213461;62;20361;-70
2022/08/06 07:52:34;0.00;0.00;0.62;0.00;0.00;0.62;2.63;0.90;;;24.50;31.30;;;;;;2214582;62;20410;-65
2022/08/06 07:55:24;0.00;0.00;0.62;0.00;0.00;0.62;2.53;1.10;;;24.50;31.30;;;;;;2214336;62;20369;-68
2022/08/06 07:58:10;0.00;0.00;0.62;0.00;0.00;0.62;2.53;1.00;;;24.50;31.20;;;;;;2213583;62;20397;-71
2022/08/06 08:00:56;0.00;0.00;0.62;0.00;0.00;0.62;2.37;1.00;;;24.60;31.20;;;;;;2214566;62;20432;-66
2022/08/06 08:06:45;0.00;0.00;0.62;0.00;0.00;0.62;3.10;1.00;;;24.60;31.00;;;;;;2214150;62;20376;-67
2022/08/06 08:09:31;0.00;0.00;0.62;0.00;0.00;0.62;4.63;1.00;;;24.70;30.90;;;;;;2214563;62;20364;-69
2022/08/06 08:12:20;0.00;0.00;0.62;0.00;0.00;0.62;1.70;0.77;;;24.70;30.80;;;;;;2213755;62;20373;-64
2022/08/06 08:15:06;0.00;0.00;0.62;0.00;0.00;0.62;1.50;1.00;;;24.70;30.80;;;;;;2214579;62;20376;-63
2022/08/06 08:17:51;0.00;0.00;0.62;0.00;0.00;0.62;1.40;0.80;;;24.80;30.70;;;;;;2214330;62;20484;-64
2022/08/06 08:20:38;0.00;0.00;0.62;0.00;0.00;0.62;1.83;0.87;;;24.80;31.30;;;;;;2213841;62;20409;-61
2022/08/06 08:23:24;0.00;0.00;0.62;0.00;0.00;0.62;1.80;0.90;;;24.80;31.10;;;;;;2214449;62;20368;-62
2022/08/06 08:26:09;0.00;0.00;0.62;0.00;0.00;0.62;3.67;1.07;;;24.80;30.30;;;;;;2213882;62;20607;-62
2022/08/06 08:28:56;0.00;0.00;0.62;0.00;0.00;0.62;1.50;0.90;;;24.90;30.20;;;;;;2214360;62;20416;-62
2022/08/06 08:31:41;0.00;0.00;0.62;0.00;0.00;0.62;1.40;0.77;;;24.90;30.00;;;;;;2214294;62;20415;-62
2022/08/06 08:34:26;0.00;0.00;0.62;0.00;0.00;0.62;1.50;0.77;;;24.90;30.00;;;;;;2213356;62;20397;-62
2022/08/06 08:37:11;0.00;0.00;0.62;0.00;0.00;0.62;1.73;1.00;;;25.00;30.00;;;;;;2214225;62;20764;-62
2022/08/06 08:39:56;0.00;0.00;0.62;0.00;0.00;0.62;1.40;0.73;;;25.00;30.00;;;;;;2214334;62;20424;-62
2022/08/06 08:42:45;0.00;0.00;0.62;0.00;0.00;0.62;1.87;0.80;;;25.00;30.00;;;;;;2213767;62;20597;-62
2022/08/06 08:45:32;0.00;0.00;0.62;0.00;0.00;0.62;1.50;0.73;;;25.00;30.00;;;;;;2214441;62;20402;-62
2022/08/06 08:48:20;0.00;0.00;0.62;0.00;0.00;0.62;2.53;1.00;;;25.10;30.00;;;;;;2213808;62;20406;-62
2022/08/06 08:51:07;0.00;0.00;0.62;0.00;0.00;0.62;1.50;0.87;;;25.10;29.90;;;;;;2214399;62;20368;-63
2022/08/06 08:53:55;0.00;0.00;0.62;0.00;0.00;0.62;2.43;0.87;;;25.10;29.80;;;;;;2213953;62;20411;-62
2022/08/06 08:56:40;0.00;0.00;0.62;0.00;0.00;0.62;1.40;0.90;;;25.10;29.60;;;;;;2213462;62;20376;-62
2022/08/06 08:59:26;0.00;0.00;0.62;0.00;0.00;0.62;1.50;0.70;;;25.10;29.50;;;;;;2214278;62;20844;-62
2022/08/06 09:02:13;0.00;0.00;0.62;0.00;0.00;0.62;1.80;0.83;;;25.20;29.70;;;;;;2214394;62;20404;-62
2022/08/06 09:04:59;0.00;0.00;0.62;0.00;0.00;0.62;1.90;0.70;;;25.20;29.50;;;;;;2213583;62;20414;-61
2022/08/06 09:07:44;0.00;0.00;0.62;0.00;0.00;0.62;1.90;0.90;;;25.20;29.40;;;;;;2214116;62;20456;-63
2022/08/06 09:10:30;0.00;0.00;0.62;0.00;0.00;0.62;1.50;0.80;;;25.20;29.40;;;;;;2213999;62;20609;-63
2022/08/06 09:13:15;0.00;0.00;0.62;0.00;0.00;0.62;1.60;0.80;;;25.30;29.30;;;;;;2214259;62;20397;-62
2022/08/06 09:16:01;0.00;0.00;0.62;0.00;0.00;0.62;1.47;0.80;;;25.30;29.30;;;;;;2214373;62;20427;-60
2022/08/06 09:18:48;0.00;0.00;0.62;0.00;0.00;0.62;2.40;1.00;;;25.30;29.30;;;;;;2213135;62;20446;-63
2022/08/06 09:21:33;0.00;0.00;0.62;0.00;0.00;0.62;1.60;0.70;;;25.30;29.30;;;;;;2214271;62;20459;-62
2022/08/06 09:24:18;0.00;0.00;0.62;0.00;0.00;0.62;1.40;0.70;;;25.40;29.40;;;;;;2214382;62;20701;-61
2022/08/06 09:27:09;0.00;0.00;0.62;0.00;0.00;0.62;1.73;0.80;;;25.40;29.30;;;;;;2213229;62;20441;-62
2022/08/06 09:29:56;0.00;0.00;0.62;0.00;0.00;0.62;3.83;1.00;;;25.40;29.20;;;;;;2214284;62;20425;-63
2022/08/06 09:32:43;0.00;0.00;0.62;0.00;0.00;0.62;1.30;0.70;;;25.40;29.10;;;;;;2213947;62;20376;-62
2022/08/06 09:35:31;0.00;0.00;0.62;0.00;0.00;0.62;2.10;0.90;;;25.40;29.10;;;;;;2214170;62;20420;-61
2022/08/06 09:38:16;0.00;0.00;0.62;0.00;0.00;0.62;3.87;0.80;;;25.50;29.10;;;;;;2214168;62;20415;-60
2022/08/06 09:41:10;0.00;0.00;0.62;0.00;0.00;0.62;1.77;0.87;;;25.50;29.00;;;;;;2213450;62;20396;-63
2022/08/06 09:43:57;0.00;0.00;0.62;0.00;0.00;0.62;2.00;0.80;;;25.50;29.50;;;;;;2213854;62;20377;-61
2022/08/06 09:46:44;0.00;0.00;0.62;0.00;0.00;0.62;4.17;1.00;;;25.50;28.90;;;;;;2214062;62;20376;-63
2022/08/06 09:49:43;0.00;0.00;0.62;0.00;0.00;0.62;1.50;0.80;;;25.50;28.90;;;;;;2213169;62;20418;-62
2022/08/06 09:52:29;0.00;0.00;0.62;0.00;0.00;0.62;1.60;0.80;;;25.60;29.00;;;;;;2214202;62;20376;-62
2022/08/06 09:55:29;0.00;0.00;0.62;0.00;0.00;0.62;2.63;0.87;;;25.60;28.90;;;;;;2213529;62;20380;-63
2022/08/06 09:58:25;0.00;0.00;0.62;0.00;0.00;0.62;1.80;0.90;;;25.60;28.90;;;;;;2214690;62;20474;-63
2022/08/06 10:01:14;0.00;0.00;0.62;0.00;0.00;0.62;1.73;0.90;;;25.60;29.40;;;;;;2214886;62;20451;-63
2022/08/06 10:03:59;0.00;0.00;0.62;0.00;0.00;0.62;1.30;0.70;;;25.60;28.70;;;;;;2214096;62;20372;-63
2022/08/06 10:06:55;0.00;0.00;0.62;0.00;0.00;0.62;1.30;0.70;;;25.70;28.80;;;;;;2214657;62;20372;-62
2022/08/06 10:09:53;0.00;0.00;0.62;0.00;0.00;0.62;2.60;1.00;;;25.70;28.70;;;;;;2214491;62;20426;-62
2022/08/06 10:12:39;0.00;0.00;0.62;0.00;0.00;0.62;1.50;0.80;;;25.70;28.60;;;;;;2214760;62;20589;-62
2022/08/06 10:15:31;0.00;0.00;0.62;0.00;0.00;0.62;2.27;0.90;;;25.70;28.50;;;;;;2214981;62;20390;-63
2022/08/06 10:18:32;0.00;0.00;0.62;0.00;0.00;0.62;1.63;0.70;;;25.70;28.50;;;;;;2213861;62;20801;-62
2022/08/06 10:21:19;0.00;0.00;0.62;0.00;0.00;0.62;2.27;1.00;;;25.70;28.50;;;;;;2214868;62;20659;-62
2022/08/06 10:24:05;0.00;0.00;0.62;0.00;0.00;0.62;2.13;0.97;;;25.70;28.50;;;;;;2214795;62;20660;-63
2022/08/06 10:26:53;0.00;0.00;0.62;0.00;0.00;0.62;1.60;0.90;;;25.80;28.40;;;;;;2214164;62;20415;-62
2022/08/06 10:29:44;0.00;0.00;0.62;0.00;0.00;0.62;2.37;0.80;;;25.70;28.40;;;;;;2214935;62;20733;-62
2022/08/06 10:32:37;0.00;0.00;0.62;0.00;0.00;0.62;2.27;1.00;;;25.80;28.30;;;;;;2213912;62;20414;-62
2022/08/06 10:35:23;0.00;0.00;0.62;0.00;0.00;0.62;1.47;0.80;;;25.80;28.00;;;;;;2214866;62;20384;-63
2022/08/06 10:38:13;0.00;0.00;0.62;0.00;0.00;0.62;1.50;0.70;;;25.80;28.00;;;;;;2214528;62;20454;-63
2022/08/06 10:40:59;0.00;0.00;0.62;0.00;0.00;0.62;1.60;0.70;;;25.80;28.10;;;;;;2213967;62;20400;-61
2022/08/06 10:43:46;0.00;0.00;0.62;0.00;0.00;0.62;1.40;0.73;;;25.90;28.00;;;;;;2214789;62;20414;-63
2022/08/06 10:46:31;0.00;0.00;0.62;0.00;0.00;0.62;1.83;0.80;;;25.90;28.00;;;;;;2214562;62;20381;-63
2022/08/06 10:49:18;0.00;0.00;0.62;0.00;0.00;0.62;1.80;0.90;;;25.90;28.00;;;;;;2214848;62;20599;-62
2022/08/06 10:52:04;0.00;0.00;0.62;0.00;0.00;0.62;2.17;1.00;;;25.90;27.70;;;;;;2214650;62;20748;-63
2022/08/06 10:54:50;0.00;0.00;0.62;0.00;0.00;0.62;2.03;0.70;;;26.00;27.80;;;;;;2213951;62;20420;-66
2022/08/06 10:57:40;0.00;0.00;0.62;0.00;0.00;0.62;1.40;0.70;;;26.00;27.70;;;;;;2214447;62;20768;-68
2022/08/06 11:00:27;0.00;0.00;0.62;0.00;0.00;0.62;1.30;0.70;;;26.00;27.70;;;;;;2214347;62;20639;-63
2022/08/06 11:03:22;0.00;0.00;0.62;0.00;0.00;0.62;5.40;1.07;;;26.00;27.80;;;;;;2214040;62;20500;-63
2022/08/06 11:06:26;0.00;0.00;0.62;0.00;0.00;0.62;2.63;0.90;;;26.00;27.80;;;;;;2214541;62;20738;-63